Terminal Aerodrome Forecast
Issued by NWS

Home | Current Version | Previous Version | Text Only | Print | Product List | Glossary Off
Versions: 1 2 3 4 5 6 7 8 9 10 11 12 13 14 15 16 17 18

302
FTUS43 KABR 261124
TAFPIR
TAF
KPIR 261124Z 2612/2712 VRB03KT P6SM SCT250
     FM261500 15007KT P6SM -SHRA OVC070
     FM261800 15010KT P6SM -SHRA VCTS OVC060CB
     FM270000 13007KT P6SM BKN090=

USA.gov is the U.S. government's official web portal to all federal, state and local government web resources and services.